TAF LFMP
LFMP 090200Z 0903/1003 30015KT 9999 BKN040 TEMPO 0908/0912 32015G27KT BECMG 0912/0915 32010KT BECMG 0921/0924 RA BKN008 BKN020=
METAR LFMP
LFMP 090700Z AUTO 29012KT 9999 FEW028 06/01 Q1012 TEMPO 32015G27KT=
LFMP 090630Z AUTO 27007KT 210V320 9999 BKN030 06/01 Q1013 TEMPO 32015G27KT=
LFMP 090600Z AUTO VRB03KT 9999 BKN032 BKN038 06/01 Q1012 BECMG 30015KT=
LFMP 090530Z AUTO 29014KT 9999 FEW036 06/01 Q1012 NOSIG=
LFMP 090500Z AUTO 28010KT 260V330 9999 SCT037 SCT170 06/00 Q1011 NOSIG=
WC LFMP
WS LFMP
WV LFMP